Time;durP1;ratioP1;P1;durP2;ratioP2;P2;SDS_P1;SDS_P2;PMS_P1;PMS_P2;Temp;Humidity;BMP_temperature;BMP_pressure;BME280_temperature;BME280_humidity;BME280_pressure;Samples;Min_cycle;Max_cycle;Signal;HPM_P1;HPM_P2
2023/10/19 00:01:17;;;;;;;;;14.25;12.25;;;;;10.55;94.66;99203.19;4974657;28;10650;-69
2023/10/19 00:03:44;;;;;;;;;16.50;13.00;;;;;10.58;95.30;99206.22;4975488;28;10709;-69
2023/10/19 00:06:11;;;;;;;;;16.00;16.00;;;;;10.59;95.25;99198.97;4965932;28;10742;-69
2023/10/19 00:08:41;;;;;;;;;9.50;9.50;;;;;10.61;95.11;99184.22;5001226;28;11395;-69
2023/10/19 00:11:09;;;;;;;;;16.00;14.75;;;;;10.62;95.47;99182.38;4990394;28;10574;-69
2023/10/19 00:13:40;;;;;;;;;14.50;13.75;;;;;10.63;95.10;99179.41;4981128;28;10853;-69
2023/10/19 00:16:17;;;;;;;;;15.75;15.00;;;;;10.65;95.41;99176.47;4990102;28;10717;-69
2023/10/19 00:18:48;;;;;;;;;14.50;14.00;;;;;10.67;95.74;99178.97;4981566;28;11362;-68
2023/10/19 00:21:25;;;;;;;;;18.25;14.75;;;;;10.66;95.54;99178.16;4983032;28;10641;-69
2023/10/19 00:23:57;;;;;;;;;17.25;16.50;;;;;10.65;95.09;99176.47;4972110;28;10637;-69
2023/10/19 00:26:26;;;;;;;;;14.50;12.75;;;;;10.62;95.27;99177.78;4979509;28;10616;-68
2023/10/19 00:28:55;;;;;;;;;20.00;17.50;;;;;10.60;95.41;99165.63;4966769;28;10697;-68
2023/10/19 00:31:24;;;;;;;;;14.50;12.75;;;;;10.62;95.67;99169.72;4973016;28;10564;-69
2023/10/19 00:33:56;;;;;;;;;11.50;10.75;;;;;10.67;96.04;99173.56;4970109;28;10506;-69
2023/10/19 00:36:25;;;;;;;;;13.00;13.00;;;;;10.70;96.30;99167.72;4966654;28;10621;-68
2023/10/19 00:38:59;;;;;;;;;14.25;14.25;;;;;10.71;95.81;99167.47;4953512;28;10666;-69
2023/10/19 00:41:29;;;;;;;;;16.75;15.75;;;;;10.74;96.13;99172.41;4970991;28;10520;-69
2023/10/19 00:44:02;;;;;;;;;15.25;14.75;;;;;10.75;96.28;99171.34;4959383;28;10650;-69
2023/10/19 00:46:34;;;;;;;;;17.00;17.00;;;;;10.74;96.17;99174.28;4988883;28;10663;-69
2023/10/19 00:49:05;;;;;;;;;15.00;13.25;;;;;10.75;96.50;99165.97;4972971;28;10685;-69
2023/10/19 00:54:37;;;;;;;;;13.00;13.00;;;;;10.78;96.82;99161.97;4975621;28;11723;-68
2023/10/19 00:57:10;;;;;;;;;11.75;10.75;;;;;10.82;97.01;99163.97;4973293;28;10524;-68
2023/10/19 00:59:54;;;;;;;;;16.25;13.50;;;;;10.86;96.54;99162.44;4988780;28;10584;-69
2023/10/19 01:04:55;;;;;;;;;14.50;13.75;;;;;10.92;97.19;99157.16;4984602;28;10474;-69
2023/10/19 01:07:45;;;;;;;;;14.00;13.00;;;;;10.94;97.13;99152.34;4990442;28;10419;-68
2023/10/19 01:10:28;;;;;;;;;14.00;13.00;;;;;10.96;97.10;99153.75;4985067;28;10527;-68
2023/10/19 01:12:55;;;;;;;;;15.75;14.50;;;;;10.99;97.06;99147.88;4991673;28;10413;-69
2023/10/19 01:17:58;;;;;;;;;17.50;16.25;;;;;11.02;96.85;99154.66;4980934;28;10622;-68
2023/10/19 01:25:40;;;;;;;;;10.50;10.50;;;;;11.10;96.81;99144.34;4964903;28;10494;-67
2023/10/19 01:28:09;;;;;;;;;12.75;11.50;;;;;11.12;96.91;99146.78;4983478;28;10408;-67
2023/10/19 01:30:37;;;;;;;;;14.00;14.00;;;;;11.11;96.71;99140.59;4968245;28;11354;-68
2023/10/19 01:33:04;;;;;;;;;13.25;12.00;;;;;11.14;96.96;99134.72;4971137;28;10549;-68
2023/10/19 01:38:16;;;;;;;;;14.00;11.50;;;;;11.18;96.82;99134.22;4976441;28;10469;-68
2023/10/19 01:40:46;;;;;;;;;7.75;7.75;;;;;11.20;97.04;99134.81;4975533;28;11169;-68
2023/10/19 01:43:22;;;;;;;;;8.00;6.25;;;;;11.23;97.06;99140.56;4992213;28;10319;-67
2023/10/19 01:45:54;;;;;;;;;12.75;12.00;;;;;11.26;96.97;99128.47;4995092;28;10209;-67
2023/10/19 01:48:27;;;;;;;;;17.25;16.75;;;;;11.25;97.01;99129.53;4988258;28;11094;-68
2023/10/19 01:50:54;;;;;;;;;15.00;15.00;;;;;11.28;97.27;99129.06;4987853;28;10743;-68
2023/10/19 01:53:25;;;;;;;;;21.00;18.25;;;;;11.29;97.16;99123.41;4954547;28;10583;-68
2023/10/19 01:55:57;;;;;;;;;17.00;17.00;;;;;11.34;97.45;99122.69;4968238;28;10546;-67
2023/10/19 01:58:25;;;;;;;;;21.50;18.00;;;;;11.34;97.59;99120.84;4970822;28;10561;-68
2023/10/19 02:01:00;;;;;;;;;19.50;18.50;;;;;11.40;97.71;99124.44;4991570;28;10601;-68
2023/10/19 02:03:32;;;;;;;;;15.00;14.00;;;;;11.43;97.80;99118.56;4975471;28;10473;-68
2023/10/19 02:05:59;;;;;;;;;14.50;14.25;;;;;11.48;97.88;99117.84;4996894;28;10552;-68
2023/10/19 02:08:26;;;;;;;;;17.75;17.00;;;;;11.52;98.13;99110.91;4987446;28;10550;-68
2023/10/19 02:10:53;;;;;;;;;23.00;18.50;;;;;11.55;97.84;99108.53;4993321;28;10597;-68
2023/10/19 02:13:21;;;;;;;;;23.00;20.00;;;;;11.61;98.33;99115.63;4982219;28;10778;-68
2023/10/19 02:15:49;;;;;;;;;20.75;19.75;;;;;11.64;98.11;99109.78;4969272;28;10487;-68
2023/10/19 02:18:17;;;;;;;;;16.75;15.00;;;;;11.67;98.29;99107.63;4965533;28;10557;-68
2023/10/19 02:20:48;;;;;;;;;25.75;23.00;;;;;11.67;98.60;99100.38;4970299;28;10646;-68
2023/10/19 02:23:14;;;;;;;;;20.50;18.75;;;;;11.72;98.50;99105.03;4983337;28;11051;-68
2023/10/19 02:25:42;;;;;;;;;24.75;22.25;;;;;11.75;98.70;99104.53;4987091;28;11419;-67
2023/10/19 02:28:09;;;;;;;;;21.00;19.25;;;;;11.76;98.74;99107.00;4991673;28;10715;-68
2023/10/19 02:30:35;;;;;;;;;19.00;16.75;;;;;11.78;98.69;99104.88;4991515;28;10457;-68
2023/10/19 02:33:05;;;;;;;;;18.00;18.00;;;;;11.83;98.95;99102.31;4985268;28;10686;-67
2023/10/19 02:35:35;;;;;;;;;15.50;14.00;;;;;11.89;98.82;99103.19;4988610;28;10455;-68
2023/10/19 02:38:01;;;;;;;;;13.75;13.50;;;;;11.90;98.98;99099.44;4988108;28;10292;-67
2023/10/19 02:40:31;;;;;;;;;16.50;16.50;;;;;11.94;98.69;99097.06;4985887;28;10450;-68
2023/10/19 02:43:02;;;;;;;;;18.00;14.00;;;;;11.99;98.92;99097.13;4963591;28;10347;-68
2023/10/19 02:45:30;;;;;;;;;19.00;13.50;;;;;12.04;99.15;99091.84;4984442;28;10464;-68
2023/10/19 02:47:58;;;;;;;;;15.25;15.25;;;;;12.09;99.35;99097.31;4962430;28;10319;-68
2023/10/19 02:50:26;;;;;;;;;14.75;14.50;;;;;12.16;99.55;99086.34;4984498;28;10275;-68
2023/10/19 02:52:56;;;;;;;;;14.25;14.25;;;;;12.23;99.32;99086.97;4992058;28;10335;-68
2023/10/19 02:55:25;;;;;;;;;17.25;15.25;;;;;12.26;99.90;99081.91;4985362;28;10342;-68
2023/10/19 02:57:52;;;;;;;;;16.50;14.25;;;;;12.32;100.00;99088.19;4965921;28;10439;-68
2023/10/19 03:00:20;;;;;;;;;15.00;15.00;;;;;12.38;100.00;99093.41;4973511;28;10433;-68
2023/10/19 03:02:48;;;;;;;;;14.50;14.00;;;;;12.46;100.00;99081.38;4995169;28;10291;-68
2023/10/19 03:05:15;;;;;;;;;10.25;10.25;;;;;12.54;100.00;99088.22;4970022;28;10336;-67
2023/10/19 03:07:44;;;;;;;;;15.25;14.00;;;;;12.59;100.00;99072.06;4980422;28;10106;-68
2023/10/19 03:10:24;;;;;;;;;14.00;12.25;;;;;12.63;100.00;99068.63;4990003;28;10267;-67
2023/10/19 03:12:51;;;;;;;;;11.50;10.00;;;;;12.68;100.00;99080.56;4985547;28;10285;-68
2023/10/19 03:15:21;;;;;;;;;9.00;9.00;;;;;12.71;100.00;99080.06;4985946;28;10162;-69
2023/10/19 03:17:48;;;;;;;;;8.50;8.25;;;;;12.76;100.00;99070.16;4992842;28;10071;-68
2023/10/19 03:20:17;;;;;;;;;11.75;8.50;;;;;12.80;100.00;99067.75;4974286;28;10010;-68
2023/10/19 03:22:46;;;;;;;;;11.00;9.25;;;;;12.85;100.00;99071.34;4977080;28;9910;-68
2023/10/19 03:28:06;;;;;;;;;6.00;6.00;;;;;12.84;100.00;99071.56;4973317;28;9773;-69
2023/10/19 03:30:38;;;;;;;;;5.50;5.50;;;;;12.86;100.00;99069.44;4985644;28;9990;-69
2023/10/19 03:33:08;;;;;;;;;3.50;3.50;;;;;12.90;100.00;99069.75;4974317;28;9681;-68
2023/10/19 03:35:41;;;;;;;;;3.00;3.00;;;;;12.94;100.00;99071.69;4973672;28;9652;-69
2023/10/19 03:38:14;;;;;;;;;3.75;3.00;;;;;12.92;100.00;99070.31;4970363;28;9502;-67
2023/10/19 03:40:41;;;;;;;;;5.00;5.00;;;;;12.96;100.00;99071.44;4975965;28;9730;-68
2023/10/19 03:43:17;;;;;;;;;4.00;3.50;;;;;12.99;100.00;99073.63;4965986;28;9697;-68
2023/10/19 03:45:52;;;;;;;;;3.25;2.50;;;;;12.98;100.00;99075.53;4994043;28;9677;-69
2023/10/19 03:48:24;;;;;;;;;3.00;3.00;;;;;13.00;100.00;99073.38;4968016;28;9694;-69
2023/10/19 03:50:57;;;;;;;;;3.50;2.25;;;;;13.00;100.00;99065.28;4962959;28;10423;-68
2023/10/19 03:53:23;;;;;;;;;4.50;3.00;;;;;13.04;100.00;99062.88;4994528;28;9529;-68
2023/10/19 03:55:50;;;;;;;;;3.00;2.00;;;;;13.03;100.00;99062.06;4989784;28;9506;-69
2023/10/19 03:58:16;;;;;;;;;4.75;4.00;;;;;13.07;100.00;99067.78;4972280;28;9632;-68
2023/10/19 04:00:44;;;;;;;;;5.50;4.50;;;;;13.07;100.00;99056.97;4975423;28;9627;-68
2023/10/19 04:03:11;;;;;;;;;3.75;3.75;;;;;13.08;100.00;99059.44;4991698;28;9655;-68
2023/10/19 04:05:38;;;;;;;;;5.00;5.00;;;;;13.10;100.00;99059.19;4989968;28;9763;-68
2023/10/19 04:08:12;;;;;;;;;7.25;7.25;;;;;13.09;100.00;99071.06;4982678;28;9911;-67
2023/10/19 04:13:25;;;;;;;;;5.00;5.00;;;;;13.04;100.00;99063.69;4988812;28;9776;-69
2023/10/19 04:15:53;;;;;;;;;5.25;5.25;;;;;13.03;100.00;99066.66;4969486;28;9857;-69
2023/10/19 04:18:19;;;;;;;;;6.50;6.50;;;;;12.99;100.00;99062.84;4986621;28;9676;-68
2023/10/19 04:20:55;;;;;;;;;7.75;6.50;;;;;12.97;100.00;99059.59;4989867;28;9970;-69
2023/10/19 04:23:26;;;;;;;;;8.25;7.00;;;;;12.95;100.00;99061.72;4992459;28;9804;-68
2023/10/19 04:25:56;;;;;;;;;8.50;8.00;;;;;12.96;100.00;99066.03;4983085;28;9918;-68
2023/10/19 04:28:38;;;;;;;;;7.25;5.50;;;;;12.96;100.00;99068.72;4973779;28;9854;-69
2023/10/19 04:31:14;;;;;;;;;6.75;6.75;;;;;12.93;100.00;99055.75;4982426;28;9995;-70
2023/10/19 04:33:54;;;;;;;;;8.50;8.00;;;;;12.95;100.00;99064.41;4986280;28;9944;-70
2023/10/19 04:36:22;;;;;;;;;7.75;6.75;;;;;12.94;100.00;99066.28;4975176;28;9844;-70
2023/10/19 04:38:48;;;;;;;;;8.25;5.75;;;;;12.94;100.00;99065.47;4984670;28;9779;-70
2023/10/19 04:41:15;;;;;;;;;6.00;6.00;;;;;12.93;100.00;99063.88;4985293;28;10506;-70
2023/10/19 04:43:43;;;;;;;;;6.00;6.00;;;;;12.94;100.00;99060.91;4991471;28;9777;-70
2023/10/19 04:46:11;;;;;;;;;6.25;5.75;;;;;12.98;100.00;99058.50;4988321;28;10526;-69
2023/10/19 04:48:41;;;;;;;;;4.25;4.25;;;;;12.99;100.00;99065.53;4991142;28;9907;-70
2023/10/19 04:51:09;;;;;;;;;5.75;4.25;;;;;12.97;100.00;99055.00;4980882;28;9686;-70
2023/10/19 04:53:37;;;;;;;;;7.00;5.75;;;;;12.99;100.00;99060.94;4969459;28;9745;-69
2023/10/19 04:56:05;;;;;;;;;5.75;4.00;;;;;13.01;100.00;99060.72;4970665;28;9752;-70
2023/10/19 04:58:31;;;;;;;;;3.75;3.75;;;;;13.00;100.00;99059.88;4965624;28;9929;-70
2023/10/19 05:00:58;;;;;;;;;3.75;3.75;;;;;13.03;100.00;99053.97;4982847;28;9834;-69
2023/10/19 05:03:25;;;;;;;;;3.50;3.50;;;;;13.01;100.00;99058.81;4972361;28;9728;-70
2023/10/19 05:05:52;;;;;;;;;5.50;4.25;;;;;13.03;100.00;99063.97;4978094;28;9693;-69
2023/10/19 05:08:18;;;;;;;;;3.75;3.75;;;;;13.02;100.00;99065.03;4977639;28;9852;-70
2023/10/19 05:10:45;;;;;;;;;3.25;3.00;;;;;13.03;100.00;99069.34;4964317;28;9693;-70
2023/10/19 05:13:12;;;;;;;;;2.25;2.25;;;;;13.06;100.00;99074.25;4986817;28;9711;-69
2023/10/19 05:15:39;;;;;;;;;3.00;3.00;;;;;13.04;100.00;99069.09;4979892;28;9611;-70
2023/10/19 05:18:06;;;;;;;;;2.50;2.50;;;;;13.07;100.00;99073.19;5009928;28;9551;-70
2023/10/19 05:20:32;;;;;;;;;2.75;2.75;;;;;13.06;100.00;99077.78;4992431;28;9548;-70
2023/10/19 05:23:00;;;;;;;;;3.00;3.00;;;;;13.05;100.00;99078.84;4995324;28;9587;-69
2023/10/19 05:25:26;;;;;;;;;3.00;2.00;;;;;13.08;100.00;99085.63;4979894;28;9560;-70
2023/10/19 05:27:53;;;;;;;;;1.25;1.25;;;;;13.09;100.00;99081.88;4976022;28;9610;-70
2023/10/19 05:30:22;;;;;;;;;4.75;4.75;;;;;13.03;100.00;99078.28;4993846;28;9623;-70
2023/10/19 05:32:49;;;;;;;;;3.75;3.00;;;;;13.03;100.00;99075.56;4993894;28;9643;-71
2023/10/19 05:35:22;;;;;;;;;4.00;4.00;;;;;13.07;100.00;99089.41;4997903;28;9512;-70
2023/10/19 05:37:49;;;;;;;;;3.00;3.00;;;;;13.08;100.00;99094.56;4971296;28;9498;-69
2023/10/19 05:40:17;;;;;;;;;2.00;2.00;;;;;13.11;100.00;99093.22;4974054;28;9583;-69
2023/10/19 05:42:46;;;;;;;;;2.00;2.00;;;;;13.09;100.00;99085.38;4956945;28;9444;-70
2023/10/19 05:45:19;;;;;;;;;1.00;1.00;;;;;13.10;100.00;99091.59;4970161;28;9432;-69
2023/10/19 05:47:46;;;;;;;;;3.00;1.33;;;;;13.09;100.00;99092.66;4979076;28;9728;-69
2023/10/19 05:50:14;;;;;;;;;1.00;1.00;;;;;13.08;100.00;99096.41;4988859;28;9437;-69
2023/10/19 05:52:42;;;;;;;;;1.00;1.00;;;;;13.10;100.00;99097.00;5008208;28;9389;-69
2023/10/19 05:55:10;;;;;;;;;1.00;1.00;;;;;13.10;100.00;99099.69;4980857;28;9636;-70
2023/10/19 05:57:40;;;;;;;;;1.00;1.00;;;;;13.11;100.00;99102.13;4989843;28;9446;-69
2023/10/19 06:00:12;;;;;;;;;2.00;2.00;;;;;13.08;100.00;99104.53;4974698;28;9477;-69
2023/10/19 06:02:44;;;;;;;;;1.00;1.00;;;;;13.10;100.00;99108.63;4978129;28;9525;-70
2023/10/19 06:05:15;;;;;;;;;2.50;2.50;;;;;13.10;100.00;99110.50;4985741;28;9435;-70
2023/10/19 06:07:46;;;;;;;;;1.50;1.00;;;;;13.11;100.00;99101.31;4977028;28;9623;-69
2023/10/19 06:10:20;;;;;;;;;1.00;1.00;;;;;13.14;100.00;99105.41;4992686;28;10220;-69
2023/10/19 06:12:51;;;;;;;;;2.50;1.00;;;;;13.12;100.00;99102.94;4989906;28;10182;-70
2023/10/19 06:15:20;;;;;;;;;0.00;0.00;;;;;13.13;100.00;99093.78;4983852;28;9547;-68
2023/10/19 06:17:47;;;;;;;;;2.00;2.00;;;;;13.13;100.00;99099.19;4997848;28;9442;-70
2023/10/19 06:20:24;;;;;;;;;1.00;1.00;;;;;13.16;100.00;99095.97;4968223;28;9535;-69
2023/10/19 06:22:52;;;;;;;;;0.75;0.25;;;;;13.17;100.00;99105.72;4961939;28;9589;-69
2023/10/19 06:25:23;;;;;;;;;1.00;1.00;;;;;13.17;100.00;99102.22;4993418;28;9380;-69
2023/10/19 06:27:52;;;;;;;;;3.00;2.00;;;;;13.14;100.00;99106.22;4998223;28;9597;-70
2023/10/19 06:30:21;;;;;;;;;2.50;1.00;;;;;13.17;100.00;99107.63;4993799;28;9621;-69
2023/10/19 06:32:50;;;;;;;;;1.00;1.00;;;;;13.18;100.00;99107.34;4990593;28;10167;-70
2023/10/19 06:35:18;;;;;;;;;2.00;2.00;;;;;13.19;100.00;99111.69;4996375;28;9346;-70
2023/10/19 06:37:44;;;;;;;;;1.00;1.00;;;;;13.19;100.00;99111.69;4983704;28;10240;-71
2023/10/19 06:40:14;;;;;;;;;0.00;0.00;;;;;13.18;100.00;99107.34;4984177;28;9298;-70
2023/10/19 06:42:42;;;;;;;;;1.00;0.33;;;;;13.19;100.00;99116.28;4971414;28;9380;-71
2023/10/19 06:45:13;;;;;;;;;0.75;0.75;;;;;13.20;100.00;99105.19;4977216;28;9377;-69
2023/10/19 06:47:45;;;;;;;;;0.50;0.50;;;;;13.20;100.00;99115.19;5002900;28;9444;-71
2023/10/19 06:50:15;;;;;;;;;0.00;0.00;;;;;13.18;100.00;99126.25;4971602;28;9534;-70
2023/10/19 06:52:43;;;;;;;;;0.25;0.25;;;;;13.20;100.00;99137.63;4972946;28;9456;-70
2023/10/19 06:55:13;;;;;;;;;0.50;0.50;;;;;13.20;100.00;99134.09;4986073;28;9462;-70
2023/10/19 06:57:43;;;;;;;;;0.75;0.75;;;;;13.22;100.00;99131.97;4958069;28;9455;-70
2023/10/19 07:00:20;;;;;;;;;2.00;1.00;;;;;13.19;100.00;99130.59;4991847;28;9544;-70
2023/10/19 07:02:52;;;;;;;;;1.00;1.00;;;;;13.22;100.00;99131.97;4974607;28;9692;-71
2023/10/19 07:05:29;;;;;;;;;2.00;1.00;;;;;13.25;100.00;99135.03;4974287;28;9366;-70
2023/10/19 07:07:58;;;;;;;;;1.00;1.00;;;;;13.26;100.00;99138.53;4991726;28;9298;-69
2023/10/19 07:10:27;;;;;;;;;1.33;1.00;;;;;13.26;100.00;99142.06;4991869;28;9244;-71
2023/10/19 07:12:55;;;;;;;;;1.00;1.00;;;;;13.28;100.00;99139.09;4992037;28;9476;-70
2023/10/19 07:15:23;;;;;;;;;1.67;1.67;;;;;13.27;100.00;99140.97;4991906;28;9233;-70
2023/10/19 07:17:52;;;;;;;;;2.00;1.00;;;;;13.29;100.00;99141.56;4988110;28;9313;-70
2023/10/19 07:20:25;;;;;;;;;3.00;3.00;;;;;13.31;100.00;99144.00;4978729;28;9321;-69
2023/10/19 07:22:57;;;;;;;;;0.25;0.25;;;;;13.32;100.00;99148.31;4998860;28;9458;-70
2023/10/19 07:25:25;;;;;;;;;1.00;1.00;;;;;13.31;100.00;99155.63;4985256;28;9393;-70
2023/10/19 07:27:53;;;;;;;;;3.50;1.75;;;;;13.35;100.00;99150.53;5010093;28;9452;-70
2023/10/19 07:30:21;;;;;;;;;1.00;1.00;;;;;13.37;100.00;99148.41;5011287;28;9386;-70
2023/10/19 07:32:51;;;;;;;;;1.00;1.00;;;;;13.38;100.00;99158.13;5010991;28;9325;-70
2023/10/19 07:35:19;;;;;;;;;1.67;1.00;;;;;13.41;100.00;99157.63;5011049;28;9277;-69
2023/10/19 07:37:48;;;;;;;;;1.00;1.00;;;;;13.44;100.00;99159.00;5010796;28;9358;-69
2023/10/19 07:40:14;;;;;;;;;0.67;0.67;;;;;13.44;100.00;99159.81;5010580;28;9437;-70
2023/10/19 07:42:42;;;;;;;;;1.33;1.33;;;;;13.48;100.00;99160.13;5010959;28;9327;-70
2023/10/19 07:45:11;;;;;;;;;2.00;2.00;;;;;13.49;100.00;99156.34;5010695;28;9295;-69
2023/10/19 07:47:41;;;;;;;;;1.00;1.00;;;;;13.52;100.00;99156.66;5010670;28;9474;-70
2023/10/19 07:50:17;;;;;;;;;1.00;1.00;;;;;13.52;100.00;99162.06;5010900;28;9361;-69
2023/10/19 07:52:49;;;;;;;;;1.67;1.67;;;;;13.56;100.00;99165.06;5010985;28;10037;-69
2023/10/19 07:55:17;;;;;;;;;1.00;1.00;;;;;13.54;100.00;99165.34;5010770;28;9287;-69
2023/10/19 07:57:44;;;;;;;;;1.67;1.67;;;;;13.55;100.00;99172.38;5008852;28;9431;-70
2023/10/19 08:00:13;;;;;;;;;2.00;1.00;;;;;13.55;100.00;99171.56;5006319;28;9317;-70
2023/10/19 08:02:41;;;;;;;;;1.67;1.00;;;;;13.59;100.00;99175.38;4965888;28;9418;-70
2023/10/19 08:05:11;;;;;;;;;1.33;1.33;;;;;13.57;100.00;99175.66;4995001;28;9291;-70
2023/10/19 08:07:39;;;;;;;;;1.00;1.00;;;;;13.59;100.00;99168.09;5004956;28;9214;-70
2023/10/19 08:10:09;;;;;;;;;2.00;2.00;;;;;13.62;100.00;99171.34;5004075;28;9369;-70
2023/10/19 08:12:42;;;;;;;;;1.00;1.00;;;;;13.66;100.00;99169.78;4987067;28;9304;-70
2023/10/19 08:15:11;;;;;;;;;3.00;1.00;;;;;13.65;100.00;99166.22;4992528;28;9374;-70
2023/10/19 08:17:39;;;;;;;;;2.67;2.00;;;;;13.65;100.00;99162.72;4992307;28;9291;-70
2023/10/19 08:20:15;;;;;;;;;0.67;0.67;;;;;13.69;100.00;99161.94;5010135;28;9420;-69
2023/10/19 08:22:46;;;;;;;;;1.33;1.33;;;;;13.72;100.00;99164.16;4976577;28;9170;-70
2023/10/19 08:25:15;;;;;;;;;1.00;1.00;;;;;13.74;100.00;99161.19;4983846;28;9354;-71
2023/10/19 08:27:44;;;;;;;;;0.00;0.00;;;;;13.76;100.00;99169.88;5003304;28;9362;-71
2023/10/19 08:30:15;;;;;;;;;1.00;1.00;;;;;13.79;100.00;99172.06;4970253;28;9282;-71
2023/10/19 08:32:51;;;;;;;;;1.00;1.00;;;;;13.81;100.00;99170.75;5001743;28;9213;-71
2023/10/19 08:35:25;;;;;;;;;1.33;1.33;;;;;13.80;100.00;99169.09;4985845;28;9507;-71
2023/10/19 08:37:54;;;;;;;;;0.00;0.00;;;;;13.85;100.00;99177.28;5009744;28;9200;-71
2023/10/19 08:40:23;;;;;;;;;1.33;1.33;;;;;13.84;100.00;99174.81;5010104;28;9183;-70
2023/10/19 08:42:50;;;;;;;;;1.00;1.00;;;;;13.88;100.00;99177.81;4992434;28;10036;-71
2023/10/19 08:45:17;;;;;;;;;1.00;0.00;;;;;13.89;100.00;99176.75;4966428;28;9169;-71
2023/10/19 08:47:52;;;;;;;;;2.00;1.00;;;;;13.87;100.00;99168.88;4978291;28;9235;-71
2023/10/19 08:50:23;;;;;;;;;1.00;1.00;;;;;13.91;100.00;99159.19;4985179;28;9053;-72
2023/10/19 08:52:54;;;;;;;;;0.67;0.67;;;;;13.96;100.00;99166.53;4983569;28;9333;-69
2023/10/19 08:55:21;;;;;;;;;0.00;0.00;;;;;13.98;100.00;99164.41;4992122;28;9218;-69
2023/10/19 08:58:06;;;;;;;;;0.00;0.00;;;;;13.99;100.00;99166.03;4984081;28;9276;-69
2023/10/19 09:00:48;;;;;;;;;1.00;1.00;;;;;14.03;100.00;99165.25;4972274;28;10052;-69
2023/10/19 09:03:16;;;;;;;;;0.00;0.00;;;;;14.04;100.00;99164.16;4985897;28;9225;-69
2023/10/19 09:05:47;;;;;;;;;0.00;0.00;;;;;14.08;100.00;99159.06;4996220;28;9079;-69
2023/10/19 09:08:19;;;;;;;;;2.33;2.00;;;;;14.07;100.00;99149.31;5000046;28;9353;-69
2023/10/19 09:10:51;;;;;;;;;1.00;1.00;;;;;14.08;100.00;99150.94;4995853;28;9169;-69
2023/10/19 09:13:18;;;;;;;;;0.00;0.00;;;;;14.11;100.00;99145.00;4984786;28;9277;-69
2023/10/19 09:15:48;;;;;;;;;0.67;0.67;;;;;14.16;100.00;99150.47;5005321;28;9121;-69
2023/10/19 09:18:21;;;;;;;;;1.00;1.00;;;;;14.19;100.00;99135.59;4985953;28;9228;-68
2023/10/19 09:20:52;;;;;;;;;1.33;1.00;;;;;14.20;100.00;99148.88;4982808;28;9157;-69
2023/10/19 09:23:25;;;;;;;;;2.33;1.00;;;;;14.26;100.00;99147.00;4966278;28;9160;-69
2023/10/19 09:25:55;;;;;;;;;2.00;2.00;;;;;14.30;100.00;99150.81;4999815;28;9212;-70
2023/10/19 09:28:23;;;;;;;;;2.33;1.67;;;;;14.37;100.00;99150.59;5001369;28;9277;-70
2023/10/19 09:30:51;;;;;;;;;2.00;2.00;;;;;14.42;100.00;99153.34;5009506;28;9164;-70
2023/10/19 09:33:17;;;;;;;;;2.67;2.00;;;;;14.48;100.00;99153.13;4979345;28;9215;-70
2023/10/19 09:35:50;;;;;;;;;3.00;2.33;;;;;14.54;100.00;99152.13;4970420;28;9013;-70
2023/10/19 09:38:27;;;;;;;;;3.00;2.00;;;;;14.56;100.00;99146.44;4969105;28;9001;-69
2023/10/19 09:40:55;;;;;;;;;2.67;2.00;;;;;14.58;100.00;99149.69;4970321;28;9167;-69
2023/10/19 09:43:38;;;;;;;;;4.33;3.00;;;;;14.57;100.00;99140.75;4978811;28;9248;-69
2023/10/19 09:46:09;;;;;;;;;2.00;2.00;;;;;14.63;100.00;99140.78;4993641;28;9288;-70
2023/10/19 09:48:45;;;;;;;;;1.33;1.33;;;;;14.74;100.00;99137.03;4999436;28;9666;-69
2023/10/19 09:51:13;;;;;;;;;3.00;2.00;;;;;14.81;100.00;99133.03;5009209;28;9219;-70
2023/10/19 09:53:49;;;;;;;;;2.67;2.00;;;;;14.84;100.00;99127.09;4973419;28;9079;-70
2023/10/19 09:56:32;;;;;;;;;4.00;4.00;;;;;14.83;100.00;99133.59;4952439;28;9164;-70
2023/10/19 09:59:04;;;;;;;;;1.00;1.00;;;;;14.86;100.00;99120.56;4969705;28;9156;-70
2023/10/19 10:02:12;;;;;;;;;2.00;2.00;;;;;14.90;100.00;99125.19;4994342;28;9023;-70
2023/10/19 10:04:40;;;;;;;;;4.67;4.33;;;;;14.92;100.00;99123.06;4979346;28;9148;-68
2023/10/19 10:07:09;;;;;;;;;6.00;2.67;;;;;14.95;100.00;99116.28;4959279;28;9282;-69
2023/10/19 10:09:43;;;;;;;;;1.67;1.67;;;;;15.05;100.00;99113.63;4993070;28;9646;-69
2023/10/19 10:12:23;;;;;;;;;2.00;2.00;;;;;15.06;100.00;99117.94;4990221;28;9134;-69
2023/10/19 10:15:07;;;;;;;;;3.67;3.00;;;;;15.08;100.00;99113.91;4993083;28;9166;-68
2023/10/19 10:17:35;;;;;;;;;1.00;1.00;;;;;15.15;100.00;99113.66;4992097;28;8973;-69
2023/10/19 10:20:13;;;;;;;;;1.00;1.00;;;;;15.19;100.00;99105.78;4990709;28;8940;-69
2023/10/19 10:22:43;;;;;;;;;1.00;1.00;;;;;15.23;100.00;99118.56;4972208;28;8930;-68
2023/10/19 10:25:29;;;;;;;;;2.67;2.67;;;;;15.32;100.00;99106.09;4996437;28;8910;-68
2023/10/19 10:27:56;;;;;;;;;2.67;2.67;;;;;15.38;100.00;99117.78;5002708;28;9010;-68
2023/10/19 10:30:23;;;;;;;;;2.67;2.00;;;;;15.38;100.00;99123.19;4997412;28;9018;-68
2023/10/19 10:32:53;;;;;;;;;2.67;2.67;;;;;15.37;100.00;99120.75;4982143;28;8985;-69
2023/10/19 10:35:41;;;;;;;;;1.67;1.67;;;;;15.29;99.04;99116.66;4973072;28;8951;-69
2023/10/19 10:38:14;;;;;;;;;2.67;2.00;;;;;15.28;100.00;99118.56;4976405;28;8969;-70
2023/10/19 10:40:50;;;;;;;;;5.67;3.00;;;;;15.32;99.74;99122.38;4983643;28;9180;-68
2023/10/19 10:43:19;;;;;;;;;3.33;3.00;;;;;15.29;100.00;99117.47;5002725;28;9005;-68
2023/10/19 10:45:45;;;;;;;;;2.33;2.33;;;;;15.30;100.00;99112.88;4985346;28;9073;-70
2023/10/19 10:48:17;;;;;;;;;2.00;2.00;;;;;15.30;99.93;99110.97;5011724;28;8965;-69
2023/10/19 10:50:45;;;;;;;;;3.25;2.50;;;;;15.33;100.00;99115.06;4986321;28;8836;-69
2023/10/19 10:53:13;;;;;;;;;4.33;4.00;;;;;15.30;100.00;99118.28;5003249;28;8907;-69
2023/10/19 10:55:40;;;;;;;;;2.00;2.00;;;;;15.27;100.00;99122.38;5001139;28;8989;-68
2023/10/19 10:58:06;;;;;;;;;4.00;3.00;;;;;15.30;100.00;99110.16;5000250;28;9060;-68
2023/10/19 11:00:34;;;;;;;;;6.00;6.00;;;;;15.31;100.00;99101.78;4967041;28;8989;-67
2023/10/19 11:03:09;;;;;;;;;2.00;2.00;;;;;15.31;100.00;99093.66;4988913;28;9235;-68
2023/10/19 11:05:37;;;;;;;;;3.00;3.00;;;;;15.32;100.00;99086.31;4989885;28;9813;-70
2023/10/19 11:08:20;;;;;;;;;3.00;1.00;;;;;15.30;99.90;99088.47;4984873;28;9218;-69
2023/10/19 11:10:47;;;;;;;;;3.00;3.00;;;;;15.30;100.00;99097.41;4982682;28;9017;-68
2023/10/19 11:13:16;;;;;;;;;3.50;3.00;;;;;15.33;100.00;99094.19;4978628;28;9405;-68
2023/10/19 11:15:53;;;;;;;;;3.00;3.00;;;;;15.37;100.00;99099.06;4977756;28;8833;-69
2023/10/19 11:18:43;;;;;;;;;4.00;4.00;;;;;15.43;100.00;99106.91;4955990;28;8981;-68
2023/10/19 11:21:11;;;;;;;;;1.50;1.50;;;;;15.50;100.00;99095.81;4972609;28;8922;-68
2023/10/19 11:23:46;;;;;;;;;3.33;3.00;;;;;15.58;99.90;99100.72;4971257;28;8859;-68
2023/10/19 11:26:16;;;;;;;;;2.67;2.67;;;;;15.62;99.83;99101.81;4972403;28;8919;-68
2023/10/19 11:28:46;;;;;;;;;2.50;2.00;;;;;15.68;99.40;99095.34;4972576;28;9077;-68
2023/10/19 11:31:24;;;;;;;;;3.75;1.25;;;;;15.75;99.30;99097.78;4955232;28;8825;-68
2023/10/19 11:33:53;;;;;;;;;3.75;2.00;;;;;15.76;99.18;99097.53;4972313;28;8845;-68
2023/10/19 11:36:22;;;;;;;;;2.00;2.00;;;;;15.76;98.42;99097.53;4954475;28;8833;-67
2023/10/19 11:38:51;;;;;;;;;2.50;2.00;;;;;15.76;98.71;99100.22;4972326;28;9860;-67
2023/10/19 11:41:18;;;;;;;;;2.00;2.00;;;;;15.74;98.28;99101.56;4954567;28;8821;-67
2023/10/19 11:43:45;;;;;;;;;2.50;2.50;;;;;15.77;98.76;99104.56;4954710;28;8912;-68
2023/10/19 11:46:14;;;;;;;;;2.00;2.00;;;;;15.76;98.33;99094.81;4971865;28;9540;-68
2023/10/19 11:48:44;;;;;;;;;2.50;2.50;;;;;15.79;98.37;99091.53;4971995;28;9005;-69
2023/10/19 11:51:11;;;;;;;;;2.00;2.00;;;;;15.79;98.35;99090.72;4971836;28;8908;-67
2023/10/19 11:53:38;;;;;;;;;2.25;2.00;;;;;15.78;98.54;99087.19;4954245;28;8841;-67
2023/10/19 11:56:09;;;;;;;;;2.00;2.00;;;;;15.80;98.46;99078.81;4971792;28;8891;-68
2023/10/19 11:58:37;;;;;;;;;2.00;2.00;;;;;15.87;98.57;99075.81;4954437;28;8825;-69
2023/10/19 12:01:08;;;;;;;;;2.00;2.00;;;;;15.92;98.56;99067.66;4954431;28;9193;-69
2023/10/19 12:03:39;;;;;;;;;2.67;2.67;;;;;15.97;98.00;99067.66;4953919;28;8907;-69
2023/10/19 12:06:10;;;;;;;;;1.25;1.25;;;;;16.04;97.63;99062.75;4954005;28;9035;-69